Terminal Aerodrome Forecast
Issued by NWS

Home | Current Version | Previous Version | Text Only | Print | Product List | Glossary On
Versions: 1 2 3 4 5 6 7 8 9 10 11 12 13 14 15 16 17 18 19 20 21 22 23 24 25 26 27 28 29 30 31 32 33 34 35 36 37 38 39 40 41
000
FTUS41 KBTV 301700
TAFPBG
TAF
KPBG 301733Z 3018/3118 14007KT P6SM FEW045 SCT110
     FM302200 00000KT P6SM SCT045 BKN100
     FM310600 VRB02KT P6SM VCSH SCT045 BKN060 BKN080
     FM311300 17008KT P6SM VCSH BKN040 BKN070=

USA.gov is the U.S. government's official web portal to all federal, state and local government web resources and services.